createdAt,value
2022-08-19T00:02:05.810Z,62.53
2022-08-19T00:08:09.318Z,62.00
2022-08-19T00:14:14.376Z,63.19
2022-08-19T00:20:23.431Z,62.62
2022-08-19T00:26:27.638Z,62.85
2022-08-19T00:32:31.411Z,63.30
2022-08-19T00:38:43.952Z,100.00
2022-08-19T00:44:47.580Z,100.00
2022-08-19T00:50:52.492Z,100.00
2022-08-19T00:56:57.437Z,100.00
2022-08-19T01:03:01.134Z,100.00
2022-08-19T01:09:05.378Z,100.00
2022-08-19T01:15:14.238Z,100.00
2022-08-19T01:21:24.897Z,100.00
2022-08-19T01:27:43.156Z,63.30
2022-08-19T01:33:48.113Z,64.16
2022-08-19T01:39:51.790Z,63.93
2022-08-19T01:45:56.783Z,63.58
2022-08-19T01:52:02.616Z,63.52
2022-08-19T01:58:07.967Z,63.89
2022-08-19T02:04:12.881Z,63.83
2022-08-19T02:10:19.804Z,63.28
2022-08-19T02:16:24.333Z,63.23
2022-08-19T02:22:29.391Z,63.27
2022-08-19T02:28:33.434Z,63.55
2022-08-19T02:34:37.045Z,62.84
2022-08-19T02:40:41.970Z,62.85
2022-08-19T02:46:47.089Z,62.87
2022-08-19T02:52:50.632Z,62.94
2022-08-19T02:58:56.171Z,63.10
2022-08-19T03:04:59.740Z,62.37
2022-08-19T03:11:03.299Z,62.38
2022-08-19T03:17:09.024Z,62.12
2022-08-19T03:23:13.633Z,62.10
2022-08-19T03:29:30.463Z,60.63
2022-08-19T03:35:37.711Z,61.67
2022-08-19T03:41:44.927Z,60.68
2022-08-19T03:47:49.511Z,100.00
2022-08-19T03:53:55.367Z,100.00
2022-08-19T04:00:13.015Z,100.00
2022-08-19T04:06:19.560Z,100.00
2022-08-19T04:12:24.499Z,100.00
2022-08-19T04:18:33.601Z,100.00
2022-08-19T04:24:40.070Z,100.00
2022-08-19T04:30:48.508Z,100.00
2022-08-19T04:36:53.421Z,100.00
2022-08-19T04:42:57.466Z,100.00
2022-08-19T04:49:10.389Z,100.00
2022-08-19T04:55:17.710Z,100.00
2022-08-19T05:01:24.184Z,62.33
2022-08-19T05:07:29.304Z,62.85
2022-08-19T05:13:32.819Z,63.21
2022-08-19T05:19:56.002Z,63.35
2022-08-19T05:26:00.981Z,63.79
2022-08-19T05:32:06.557Z,63.62
2022-08-19T05:38:11.950Z,63.52
2022-08-19T05:44:17.984Z,63.56
2022-08-19T05:50:21.806Z,63.39
2022-08-19T05:56:25.387Z,63.69
2022-08-19T06:02:32.546Z,63.28
2022-08-19T06:08:37.285Z,63.00
2022-08-19T06:14:41.774Z,63.14
2022-08-19T06:20:56.187Z,63.19
2022-08-19T06:27:01.591Z,62.74
2022-08-19T06:33:05.452Z,63.55
2022-08-19T06:39:12.701Z,63.14
2022-08-19T06:45:16.528Z,62.95
2022-08-19T06:51:20.653Z,63.01
2022-08-19T06:57:27.342Z,62.97
2022-08-19T07:03:33.482Z,62.92
2022-08-19T07:09:43.194Z,62.56
2022-08-19T07:15:48.759Z,62.78
2022-08-19T07:21:53.796Z,62.86
2022-08-19T07:27:58.229Z,62.32
2022-08-19T07:34:08.720Z,62.42
2022-08-19T07:40:13.872Z,62.35
2022-08-19T07:46:18.113Z,62.68
2022-08-19T07:52:23.330Z,62.54
2022-08-19T07:58:27.036Z,62.76
2022-08-19T08:04:48.297Z,62.21
2022-08-19T08:10:54.611Z,62.13
2022-08-19T08:17:00.388Z,61.93
2022-08-19T08:23:22.047Z,61.90
2022-08-19T08:29:27.345Z,61.71
2022-08-19T08:35:39.831Z,61.38
2022-08-19T08:41:50.409Z,61.53
2022-08-19T08:48:00.005Z,61.42
2022-08-19T08:54:09.881Z,61.19
2022-08-19T09:00:21.987Z,61.33
2022-08-19T09:06:35.373Z,61.16
2022-08-19T09:12:47.265Z,61.25
2022-08-19T09:18:54.624Z,61.15
2022-08-19T09:24:59.583Z,61.39
2022-08-19T09:31:03.141Z,61.96
2022-08-19T09:37:07.429Z,62.26
2022-08-19T09:43:13.521Z,62.67
2022-08-19T09:49:18.381Z,62.86
2022-08-19T09:55:22.330Z,63.83
2022-08-19T10:01:32.714Z,64.40
2022-08-19T10:07:36.750Z,64.49
2022-08-19T10:13:40.342Z,65.26
2022-08-19T10:19:53.424Z,64.74
2022-08-19T10:26:02.682Z,65.47
2022-08-19T10:32:09.993Z,64.47
2022-08-19T10:38:15.033Z,64.90
2022-08-19T10:44:19.181Z,64.77
2022-08-19T10:50:40.533Z,65.90
2022-08-19T10:56:56.493Z,67.62
2022-08-19T11:03:01.193Z,68.88
2022-08-19T11:09:05.738Z,69.58
2022-08-19T11:15:12.362Z,70.07
2022-08-19T11:21:20.020Z,70.49
2022-08-19T11:27:24.281Z,70.03
2022-08-19T11:33:29.312Z,69.26
2022-08-19T11:39:34.087Z,69.31
2022-08-19T11:45:38.140Z,70.94
2022-08-19T11:51:45.180Z,70.30
2022-08-19T11:57:48.748Z,70.14
2022-08-19T12:03:54.875Z,69.24
2022-08-19T12:09:59.849Z,69.05
2022-08-19T12:16:10.660Z,69.26
2022-08-19T12:22:14.197Z,69.23
2022-08-19T12:28:19.950Z,69.01
2022-08-19T12:34:23.499Z,67.44
2022-08-19T12:40:27.610Z,66.44
2022-08-19T12:46:32.551Z,65.65
2022-08-19T12:52:38.905Z,65.63
2022-08-19T12:58:48.897Z,65.34
2022-08-19T13:04:56.039Z,64.94
2022-08-19T13:11:08.593Z,63.77
2022-08-19T13:17:15.274Z,63.29
2022-08-19T13:23:20.213Z,62.87
2022-08-19T13:29:41.262Z,62.87
2022-08-19T13:35:52.879Z,61.45
2022-08-19T13:41:59.333Z,63.28
2022-08-19T13:48:07.772Z,64.00
2022-08-19T13:54:13.263Z,63.99
2022-08-19T14:00:20.738Z,64.00
2022-08-19T14:06:24.467Z,64.06
2022-08-19T14:12:28.762Z,64.24
2022-08-19T14:18:33.993Z,65.27
2022-08-19T14:24:39.899Z,64.96
2022-08-19T14:30:45.549Z,66.29
2022-08-19T14:36:50.582Z,65.93
2022-08-19T14:42:56.784Z,65.66
2022-08-19T14:49:01.445Z,65.64
2022-08-19T14:55:14.354Z,65.83
2022-08-19T15:01:21.876Z,65.83
2022-08-19T15:07:28.854Z,66.69
2022-08-19T15:13:34.524Z,68.91
2022-08-19T15:19:38.367Z,68.74
2022-08-19T15:25:42.548Z,68.83
2022-08-19T15:31:47.524Z,70.28
2022-08-19T15:37:53.603Z,71.65
2022-08-19T15:44:00.065Z,71.54
2022-08-19T15:50:10.813Z,69.85
2022-08-19T15:56:14.607Z,68.64
2022-08-19T16:02:37.139Z,68.81
2022-08-19T16:08:48.819Z,69.67
2022-08-19T16:14:53.545Z,70.77
2022-08-19T16:20:57.120Z,70.69
2022-08-19T16:27:02.077Z,69.45
2022-08-19T16:33:05.769Z,70.86
2022-08-19T16:39:10.232Z,71.52
2022-08-19T16:45:15.129Z,72.04
2022-08-19T16:51:18.777Z,72.52
2022-08-19T16:57:23.959Z,100.00
2022-08-19T17:03:35.987Z,72.45
2022-08-19T17:09:40.451Z,72.23
2022-08-19T17:15:44.912Z,71.72
2022-08-19T17:21:49.853Z,70.80
2022-08-19T17:27:53.923Z,69.85
2022-08-19T17:33:58.943Z,70.75
2022-08-19T17:40:05.345Z,70.54
2022-08-19T17:46:11.151Z,100.00
2022-08-19T17:52:14.814Z,100.00
2022-08-19T17:58:20.577Z,100.00
2022-08-19T18:04:27.122Z,100.00
2022-08-19T18:10:35.249Z,100.00
2022-08-19T18:16:40.390Z,100.00
2022-08-19T18:22:45.961Z,100.00
2022-08-19T18:28:51.765Z,100.00
2022-08-19T18:34:56.719Z,100.00
2022-08-19T18:41:19.332Z,100.00
2022-08-19T18:47:41.680Z,100.00
2022-08-19T18:53:48.624Z,100.00
2022-08-19T18:59:52.613Z,100.00
2022-08-19T19:05:57.452Z,100.00
2022-08-19T19:12:04.787Z,100.00
2022-08-19T19:18:09.368Z,100.00
2022-08-19T19:24:14.067Z,100.00
2022-08-19T19:30:19.696Z,100.00
2022-08-19T19:36:24.558Z,100.00
2022-08-19T19:42:28.268Z,100.00
2022-08-19T19:48:33.257Z,100.00
2022-08-19T19:54:37.836Z,100.00
2022-08-19T20:00:41.921Z,100.00
2022-08-19T20:06:48.466Z,100.00
2022-08-19T20:12:54.871Z,100.00
2022-08-19T20:18:59.854Z,100.00
2022-08-19T20:25:06.402Z,100.00
2022-08-19T20:31:11.512Z,100.00
2022-08-19T20:37:15.184Z,100.00
2022-08-19T20:43:21.189Z,100.00
2022-08-19T20:49:27.001Z,100.00
2022-08-19T20:55:31.251Z,100.00
2022-08-19T21:01:36.191Z,100.00
2022-08-19T21:07:39.850Z,100.00
2022-08-19T21:13:43.433Z,100.00
2022-08-19T21:19:48.357Z,100.00
2022-08-19T21:25:54.656Z,100.00
2022-08-19T21:31:58.401Z,100.00
2022-08-19T21:38:03.329Z,100.00
2022-08-19T21:44:06.877Z,100.00
2022-08-19T21:50:12.441Z,100.00
2022-08-19T21:56:17.377Z,100.00
2022-08-19T22:02:22.041Z,100.00
2022-08-19T22:08:27.325Z,100.00
2022-08-19T22:14:33.730Z,100.00
2022-08-19T22:20:37.649Z,100.00
2022-08-19T22:26:41.316Z,100.00
2022-08-19T22:32:48.236Z,100.00
2022-08-19T22:38:59.825Z,100.00
2022-08-19T22:45:03.409Z,100.00
2022-08-19T22:51:25.846Z,100.00
2022-08-19T22:57:31.933Z,100.00
2022-08-19T23:03:35.542Z,100.00
2022-08-19T23:09:40.792Z,100.00
2022-08-19T23:15:47.651Z,100.00
2022-08-19T23:21:52.705Z,100.00
2022-08-19T23:28:15.228Z,100.00
2022-08-19T23:34:18.818Z,100.00
2022-08-19T23:40:22.767Z,100.00
2022-08-19T23:46:28.274Z,100.00
2022-08-19T23:52:33.755Z,100.00
2022-08-19T23:58:38.476Z,100.00
